F/V Cote D'ambre — FPEY — position and weather

sailwx.info

Track history (hours):
 
Tides and Currents Weather Stations Pressure Air Temp Water Temp Dewpoint Dewpoint Depression Visibility Wind Speed Wind Dir Waves Ship Positions

F/V Cote D'ambre

Last reported at 2014-Sep-02 01:27 UTC. Time now 2014-Sep-02 04:19 UTC.
Position N 47°38' W 003°34'.

Length 16 m; draft 4 m.

Type: Fishing. MMSI: 227128800.

Date/timePositionNaut miles runAvg speedWind from/ knotsBaromVisibWave heightAir tempDewpointWater temp
2014-Sep-02 01:27N 47°38' W 003°34'5 6.0
2014-Sep-02 00:33N 47°40' W 003°27'5 4.6
2014-Sep-01 23:32N 47°44' W 003°22'4 3.9
2014-Sep-01 22:33N 47°41' W 003°25'6 6.4
2014-Sep-01 21:33N 47°38' W 003°34'19 1.8
2014-Sep-01 11:11N 47°22' W 003°49'2 0.6
2014-Sep-01 07:33N 47°20' W 003°50'22 5.0
2014-Sep-01 03:11N 47°39' W 003°33'5 8.2
2014-Sep-01 02:33N 47°40' W 003°26'4 0.1
2014-Aug-30 06:33N 47°44' W 003°22'0 0.0
2014-Aug-30 05:33N 47°44' W 003°22'0 0.0
2014-Aug-30 04:33N 47°44' W 003°22'0 0.0
2014-Aug-30 03:33N 47°44' W 003°22'0 0.0
2014-Aug-30 02:33N 47°44' W 003°22'0 0.2
2014-Aug-30 01:32N 47°44' W 003°22'1 0.6
2014-Aug-30 00:33N 47°43' W 003°22'9 8.8
2014-Aug-29 23:33N 47°34' W 003°22'  
2014-Aug-27 11:33N 47°32' W 003°28'7 7.0
2014-Aug-27 10:33N 47°37' W 003°22'6 6.2
2014-Aug-27 09:33N 47°44' W 003°22'0 0.0
2014-Aug-25 05:33N 47°44' W 003°22'0 0.2
2014-Aug-25 04:32N 47°44' W 003°22'0 0.1
2014-Aug-25 03:33N 47°44' W 003°22'0 0.1
2014-Aug-25 02:33N 47°44' W 003°22'0 0.0
2014-Aug-25 01:33N 47°44' W 003°22'2 2.0
2014-Aug-25 00:33N 47°42' W 003°22'9 8.7
2014-Aug-24 23:33N 47°33' W 003°22'0 0.0
2014-Aug-23 02:25N 47°33' W 003°22'7 8.4
2014-Aug-23 01:33N 47°40' W 003°22'  
Track history (hours):
 
Tides and Currents Weather Stations Pressure Air Temp Water Temp Dewpoint Dewpoint Depression Visibility Wind Speed Wind Dir Waves Ship Positions

F/V Cote D'ambre

Last reported at 2014-Sep-02 01:27 UTC. Time now 2014-Sep-02 04:19 UTC.
Position N 47°38' W 003°34'.

Length 16 m; draft 4 m.

Type: Fishing. MMSI: 227128800.

Date/timePositionNaut miles runAvg speedWind from/ knotsBaromVisibWave heightAir tempDewpointWater temp
2014-Sep-02 01:27N 47°38' W 003°34'5 6.0
2014-Sep-02 00:33N 47°40' W 003°27'5 4.6
2014-Sep-01 23:32N 47°44' W 003°22'4 3.9
2014-Sep-01 22:33N 47°41' W 003°25'6 6.4
2014-Sep-01 21:33N 47°38' W 003°34'19 1.8
2014-Sep-01 11:11N 47°22' W 003°49'2 0.6
2014-Sep-01 07:33N 47°20' W 003°50'22 5.0
2014-Sep-01 03:11N 47°39' W 003°33'5 8.2
2014-Sep-01 02:33N 47°40' W 003°26'4 0.1
2014-Aug-30 06:33N 47°44' W 003°22'0 0.0
2014-Aug-30 05:33N 47°44' W 003°22'0 0.0
2014-Aug-30 04:33N 47°44' W 003°22'0 0.0
2014-Aug-30 03:33N 47°44' W 003°22'0 0.0
2014-Aug-30 02:33N 47°44' W 003°22'0 0.2
2014-Aug-30 01:32N 47°44' W 003°22'1 0.6
2014-Aug-30 00:33N 47°43' W 003°22'9 8.8
2014-Aug-29 23:33N 47°34' W 003°22'  
2014-Aug-27 11:33N 47°32' W 003°28'7 7.0
2014-Aug-27 10:33N 47°37' W 003°22'6 6.2
2014-Aug-27 09:33N 47°44' W 003°22'0 0.0
2014-Aug-25 05:33N 47°44' W 003°22'0 0.2
2014-Aug-25 04:32N 47°44' W 003°22'0 0.1
2014-Aug-25 03:33N 47°44' W 003°22'0 0.1
2014-Aug-25 02:33N 47°44' W 003°22'0 0.0
2014-Aug-25 01:33N 47°44' W 003°22'2 2.0
2014-Aug-25 00:33N 47°42' W 003°22'9 8.7
2014-Aug-24 23:33N 47°33' W 003°22'0 0.0
2014-Aug-23 02:25N 47°33' W 003°22'7 8.4
2014-Aug-23 01:33N 47°40' W 003°22'  

Dump ship's entire track history